createdAt,value
2023-02-23T00:00:09.148Z,4.1
2023-02-23T00:01:19.037Z,5
2023-02-23T00:02:26.508Z,5.5
2023-02-23T00:03:35.233Z,5.2
2023-02-23T00:04:43.845Z,3.5
2023-02-23T00:05:51.490Z,4
2023-02-23T00:07:01.168Z,5.4
2023-02-23T00:08:10.818Z,3.5
2023-02-23T00:09:20.475Z,4.6
2023-02-23T00:10:30.152Z,6.5
2023-02-23T00:11:37.787Z,6
2023-02-23T00:12:47.454Z,5.2
2023-02-23T00:13:56.118Z,4.2
2023-02-23T00:15:05.795Z,7.2
2023-02-23T00:16:14.444Z,5.1
2023-02-23T00:17:23.090Z,4.6
2023-02-23T00:18:31.752Z,3.7
2023-02-23T00:19:40.390Z,3.1
2023-02-23T00:20:48.081Z,4.8
2023-02-23T00:21:57.722Z,6.4
2023-02-23T00:23:06.394Z,5.5
2023-02-23T00:24:15.055Z,6.3
2023-02-23T00:25:24.747Z,5.4
2023-02-23T00:26:34.453Z,4.6
2023-02-23T00:27:43.138Z,4.1
2023-02-23T00:28:51.764Z,5.4
2023-02-23T00:30:01.415Z,4.7
2023-02-23T00:31:11.149Z,4.7
2023-02-23T00:32:21.081Z,5.1
2023-02-23T00:33:29.584Z,7.8
2023-02-23T00:34:39.269Z,5.4
2023-02-23T00:35:48.915Z,7.5
2023-02-23T00:36:58.587Z,5.5
2023-02-23T00:38:09.922Z,5.6
2023-02-23T00:39:17.761Z,5.6
2023-02-23T00:40:27.427Z,3.9
2023-02-23T00:41:36.072Z,10.1
2023-02-23T00:42:43.753Z,5.9
2023-02-23T00:43:53.415Z,5
2023-02-23T00:45:02.067Z,6.3
2023-02-23T00:46:10.738Z,5.1
2023-02-23T00:47:19.469Z,6.1
2023-02-23T00:48:28.046Z,12.1
2023-02-23T00:49:37.716Z,4.7
2023-02-23T00:50:47.365Z,4.6
2023-02-23T00:51:55.020Z,3.8
2023-02-23T00:53:04.717Z,5.6
2023-02-23T00:54:14.372Z,3.2
2023-02-23T00:55:24.021Z,5.9
2023-02-23T00:56:32.668Z,5
2023-02-23T00:57:42.307Z,3.3
2023-02-23T00:58:51.994Z,5.5
2023-02-23T00:59:58.630Z,4.9
2023-02-23T01:01:08.365Z,6.1
2023-02-23T01:02:16.995Z,5.8
2023-02-23T01:03:26.680Z,6.1
2023-02-23T01:04:36.321Z,5.2
2023-02-23T01:05:44.975Z,8.5
2023-02-23T01:06:54.642Z,5.2
2023-02-23T01:08:03.315Z,4.7
2023-02-23T01:09:11.964Z,6.9
2023-02-23T01:10:21.632Z,3.9
2023-02-23T01:11:30.274Z,4.6
2023-02-23T01:12:38.937Z,4.4
2023-02-23T01:13:48.615Z,6
2023-02-23T01:14:58.268Z,4.2
2023-02-23T01:16:06.921Z,6
2023-02-23T01:17:16.576Z,5
2023-02-23T01:18:24.262Z,3.3
2023-02-23T01:19:33.952Z,6.3
2023-02-23T01:20:43.565Z,5.1
2023-02-23T01:21:53.256Z,4.9
2023-02-23T01:23:02.913Z,5.6
2023-02-23T01:24:12.652Z,6.5
2023-02-23T01:25:21.321Z,5.1
2023-02-23T01:26:30.978Z,6.1
2023-02-23T01:27:40.646Z,4.9
2023-02-23T01:28:50.330Z,4.9
2023-02-23T01:29:58.986Z,5.9
2023-02-23T01:31:07.719Z,4.3
2023-02-23T01:32:17.493Z,5.5
2023-02-23T01:33:27.038Z,4.6
2023-02-23T01:34:36.732Z,7.9
2023-02-23T01:35:45.361Z,6.6
2023-02-23T01:36:55.046Z,6.5
2023-02-23T01:38:04.710Z,4.5
2023-02-23T01:39:13.409Z,5.8
2023-02-23T01:40:21.066Z,6
2023-02-23T01:41:29.701Z,6.7
2023-02-23T01:42:38.354Z,7.6
2023-02-23T01:43:47.051Z,5.7
2023-02-23T01:44:56.723Z,4.5
2023-02-23T01:46:05.421Z,4.9
2023-02-23T01:47:15.077Z,5.8
2023-02-23T01:48:23.723Z,5.8
2023-02-23T01:49:32.395Z,4.5
2023-02-23T01:50:42.078Z,6
2023-02-23T01:51:51.707Z,6.1
2023-02-23T01:53:01.365Z,5
2023-02-23T01:54:11.032Z,5.4
2023-02-23T01:55:18.711Z,5.1
2023-02-23T01:56:27.373Z,4.5
2023-02-23T01:57:36.013Z,4.8
2023-02-23T01:58:45.677Z,7.4
2023-02-23T01:59:55.357Z,3.7
2023-02-23T02:01:03.996Z,4.8
2023-02-23T02:02:12.681Z,4.7
2023-02-23T02:03:21.336Z,4.5
2023-02-23T02:04:30.024Z,7.9
2023-02-23T02:05:39.678Z,5.5
2023-02-23T02:06:49.511Z,5.4
2023-02-23T02:07:58.118Z,4.9
2023-02-23T02:09:07.789Z,6.4
2023-02-23T02:10:17.472Z,5.2
2023-02-23T02:11:26.370Z,5.6
2023-02-23T02:12:35.784Z,8.3
2023-02-23T02:13:45.430Z,5.9
2023-02-23T02:14:55.126Z,6.4
2023-02-23T02:16:03.804Z,6.2
2023-02-23T02:17:12.443Z,5.6
2023-02-23T02:18:22.095Z,5.7
2023-02-23T02:19:31.770Z,5.5
2023-02-23T02:20:40.452Z,5.3
2023-02-23T02:21:50.082Z,5.5
2023-02-23T02:22:58.757Z,5.1
2023-02-23T02:24:08.455Z,6.1
2023-02-23T02:25:18.063Z,8.5
2023-02-23T02:26:26.743Z,5.9
2023-02-23T02:27:36.391Z,5.7
2023-02-23T02:28:46.058Z,6.1
2023-02-23T02:29:54.738Z,5.8
2023-02-23T02:31:04.440Z,7.6
2023-02-23T02:32:13.160Z,7.3
2023-02-23T02:33:22.732Z,6.1
2023-02-23T02:34:31.414Z,10
2023-02-23T02:35:39.070Z,3.7
2023-02-23T02:36:48.743Z,8.8
2023-02-23T02:37:58.413Z,7.7
2023-02-23T02:39:08.128Z,6.3
2023-02-23T02:40:17.788Z,7.9
2023-02-23T02:41:26.450Z,7
2023-02-23T02:42:36.116Z,6.8
2023-02-23T02:43:45.780Z,6.5
2023-02-23T02:44:53.534Z,4.3
2023-02-23T02:46:02.233Z,5.7
2023-02-23T02:47:10.864Z,7.6
2023-02-23T02:48:19.529Z,6.1
2023-02-23T02:49:29.178Z,6.8
2023-02-23T02:50:36.925Z,6.4
2023-02-23T02:51:46.616Z,6.2
2023-02-23T02:52:53.310Z,8.7
2023-02-23T02:54:02.967Z,6
2023-02-23T02:55:11.701Z,8.3
2023-02-23T02:56:19.284Z,6.3
2023-02-23T02:57:28.966Z,4.9
2023-02-23T02:58:37.607Z,4.9
2023-02-23T02:59:47.286Z,5.8
2023-02-23T03:00:56.950Z,5.9
2023-02-23T03:02:05.600Z,5.7
2023-02-23T03:03:15.289Z,6.2
2023-02-23T03:04:23.942Z,6.4
2023-02-23T03:05:31.740Z,4.6
2023-02-23T03:06:41.320Z,5.2
2023-02-23T03:07:49.978Z,6.7
2023-02-23T03:08:58.641Z,8
2023-02-23T03:10:08.325Z,6.1
2023-02-23T03:11:18.327Z,6.7
2023-02-23T03:12:27.638Z,5.9
2023-02-23T03:13:36.290Z,9.7
2023-02-23T03:14:44.962Z,4.9
2023-02-23T03:15:54.649Z,5.3
2023-02-23T03:17:04.293Z,5.2
2023-02-23T03:18:12.974Z,5.6
2023-02-23T03:19:21.613Z,7.2
2023-02-23T03:20:30.318Z,8
2023-02-23T03:21:39.967Z,6
2023-02-23T03:22:48.644Z,7.1
2023-02-23T03:23:57.292Z,5.1
2023-02-23T03:25:07.005Z,6.7
2023-02-23T03:26:16.664Z,6.3
2023-02-23T03:27:26.367Z,6
2023-02-23T03:28:36.038Z,8.9
2023-02-23T03:29:43.700Z,5.5
2023-02-23T03:30:53.479Z,9.6
2023-02-23T03:32:02.199Z,7.5
2023-02-23T03:33:10.786Z,6.2
2023-02-23T03:34:20.455Z,6.3
2023-02-23T03:35:29.128Z,9.3
2023-02-23T03:36:37.793Z,7.3
2023-02-23T03:37:47.441Z,10.7
2023-02-23T03:38:57.113Z,6.5
2023-02-23T03:40:06.826Z,5.3
2023-02-23T03:41:16.826Z,5.4
2023-02-23T03:42:24.146Z,7.2
2023-02-23T03:43:33.859Z,5.6
2023-02-23T03:44:42.496Z,5.7
2023-02-23T03:45:51.297Z,5.5
2023-02-23T03:46:59.905Z,6.3
2023-02-23T03:48:07.546Z,6.2
2023-02-23T03:49:17.215Z,5.7
2023-02-23T03:50:25.873Z,5.9
2023-02-23T03:51:34.548Z,4.7
2023-02-23T03:52:44.220Z,6.2
2023-02-23T03:53:52.873Z,4.2
2023-02-23T03:55:01.537Z,5.6
2023-02-23T03:56:11.216Z,5.7
2023-02-23T03:57:19.897Z,5.4
2023-02-23T03:58:29.580Z,4.4
2023-02-23T03:59:39.273Z,5.7
2023-02-23T04:00:47.961Z,7.2
2023-02-23T04:01:57.664Z,6.5
2023-02-23T04:03:07.329Z,6.1
2023-02-23T04:04:16.069Z,7
2023-02-23T04:05:24.748Z,5.8
2023-02-23T04:06:32.441Z,6.8
2023-02-23T04:07:42.117Z,6.1
2023-02-23T04:08:50.756Z,5.4
2023-02-23T04:09:58.421Z,5
2023-02-23T04:11:08.085Z,6.2
2023-02-23T04:12:17.760Z,6
2023-02-23T04:13:26.384Z,5
2023-02-23T04:14:36.031Z,6.4
2023-02-23T04:15:44.754Z,4.8
2023-02-23T04:16:54.384Z,6.7
2023-02-23T04:18:04.042Z,7.5
2023-02-23T04:19:11.696Z,6.1
2023-02-23T04:20:21.368Z,5.4
2023-02-23T04:21:30.067Z,9.1
2023-02-23T04:22:39.757Z,5.5
2023-02-23T04:23:46.457Z,5.2
2023-02-23T04:24:55.175Z,5.1
2023-02-23T04:26:04.843Z,5.1
2023-02-23T04:27:13.496Z,5.5
2023-02-23T04:28:22.182Z,5.9
2023-02-23T04:29:31.877Z,6.4
2023-02-23T04:30:40.539Z,4.9
2023-02-23T04:31:50.398Z,6.8
2023-02-23T04:32:59.878Z,5.9
2023-02-23T04:34:09.560Z,3.7
2023-02-23T04:35:19.216Z,4.6
2023-02-23T04:36:28.934Z,4.2
2023-02-23T04:37:37.590Z,4.2
2023-02-23T04:38:47.254Z,3.8
2023-02-23T04:39:55.922Z,6.3
2023-02-23T04:41:04.592Z,7.5
2023-02-23T04:42:13.276Z,10.7
2023-02-23T04:43:22.983Z,6.8
2023-02-23T04:44:32.651Z,5.2
2023-02-23T04:45:42.364Z,3.8
2023-02-23T04:46:51.993Z,6.7
2023-02-23T04:48:01.761Z,4.9
2023-02-23T04:49:11.327Z,5.9
2023-02-23T04:50:21.002Z,5
2023-02-23T04:51:29.691Z,10.9
2023-02-23T04:52:39.379Z,6.2
2023-02-23T04:53:48.027Z,4.9
2023-02-23T04:54:55.718Z,9.4
2023-02-23T04:56:05.404Z,6.8
2023-02-23T04:57:15.075Z,6
2023-02-23T04:58:22.766Z,5
2023-02-23T04:59:32.453Z,7.7
2023-02-23T05:00:41.120Z,6.6
2023-02-23T05:01:49.804Z,8.8
2023-02-23T05:02:59.485Z,6.2
2023-02-23T05:04:08.176Z,6.1
2023-02-23T05:05:17.844Z,8.8
2023-02-23T05:06:27.525Z,5.6
2023-02-23T05:07:36.275Z,7.7
2023-02-23T05:08:45.970Z,4.7
2023-02-23T05:09:54.636Z,6.7
2023-02-23T05:11:04.299Z,6.3
2023-02-23T05:12:12.993Z,9.5
2023-02-23T05:13:22.641Z,5.1
2023-02-23T05:14:32.324Z,6.9
2023-02-23T05:15:41.099Z,6.6
2023-02-23T05:16:48.754Z,4.8
2023-02-23T05:17:58.415Z,6
2023-02-23T05:19:07.087Z,6.1
2023-02-23T05:20:16.803Z,5.2
2023-02-23T05:21:26.460Z,5.4
2023-02-23T05:22:35.125Z,7.6
2023-02-23T05:23:44.815Z,9.2
2023-02-23T05:24:57.123Z,8.7
2023-02-23T05:26:03.158Z,6.7
2023-02-23T05:27:12.837Z,5.6
2023-02-23T05:28:22.556Z,6.3
2023-02-23T05:29:32.174Z,3.6
2023-02-23T05:30:40.928Z,8.7
2023-02-23T05:31:47.618Z,5.3
2023-02-23T05:32:57.217Z,8.3
2023-02-23T05:34:05.874Z,7.3
2023-02-23T05:35:15.528Z,6.8
2023-02-23T05:36:25.262Z,6.4
2023-02-23T05:37:33.971Z,6
2023-02-23T05:38:43.632Z,8
2023-02-23T05:39:52.307Z,5.8
2023-02-23T05:41:01.964Z,11.4
2023-02-23T05:42:11.680Z,9.3
2023-02-23T05:43:21.380Z,10.1
2023-02-23T05:44:29.039Z,8.7
2023-02-23T05:45:38.700Z,7.8
2023-02-23T05:46:47.355Z,5.1
2023-02-23T05:47:56.022Z,7.5
2023-02-23T05:49:04.696Z,9.4
2023-02-23T05:50:12.428Z,5.2
2023-02-23T05:51:22.197Z,7.7
2023-02-23T05:52:30.766Z,5.5
2023-02-23T05:53:39.421Z,6.2
2023-02-23T05:54:49.080Z,4.9
2023-02-23T05:55:57.747Z,4.5
2023-02-23T05:57:06.402Z,6.6
2023-02-23T05:58:15.100Z,7.7
2023-02-23T05:59:22.793Z,7.4
2023-02-23T06:00:32.486Z,8.7
2023-02-23T06:01:42.166Z,5.8
2023-02-23T06:02:50.886Z,6.9
2023-02-23T06:04:00.656Z,6.1
2023-02-23T06:05:10.219Z,7.3
2023-02-23T06:06:18.908Z,5.6
2023-02-23T06:07:27.588Z,7.2
2023-02-23T06:08:36.276Z,6.3
2023-02-23T06:09:45.912Z,4.2
2023-02-23T06:10:54.563Z,6.5
2023-02-23T06:12:02.239Z,5.6
2023-02-23T06:13:11.914Z,4.2
2023-02-23T06:14:20.561Z,9.1
2023-02-23T06:15:30.214Z,6.6
2023-02-23T06:16:38.978Z,5
2023-02-23T06:17:47.593Z,6
2023-02-23T06:18:56.256Z,5.8
2023-02-23T06:20:05.917Z,6.9
2023-02-23T06:21:14.625Z,6.7
2023-02-23T06:22:24.300Z,8
2023-02-23T06:23:34.013Z,6.1
2023-02-23T06:24:43.804Z,4.4
2023-02-23T06:25:52.325Z,5.4
2023-02-23T06:27:00.029Z,5.8
2023-02-23T06:28:09.712Z,7.4
2023-02-23T06:29:19.418Z,8.1
2023-02-23T06:30:28.128Z,6.1
2023-02-23T06:31:37.866Z,8.7
2023-02-23T06:32:46.440Z,6.9
2023-02-23T06:33:56.114Z,6
2023-02-23T06:35:04.791Z,7.3
2023-02-23T06:36:14.520Z,6.9
2023-02-23T06:37:24.189Z,5.8
2023-02-23T06:38:32.911Z,5.1
2023-02-23T06:39:42.584Z,6.4
2023-02-23T06:40:52.299Z,9.7
2023-02-23T06:42:01.958Z,7.2
2023-02-23T06:43:11.663Z,7.6
2023-02-23T06:44:20.393Z,8.5
2023-02-23T06:45:28.041Z,6.4
2023-02-23T06:46:37.801Z,12.1
2023-02-23T06:47:47.488Z,8.4
2023-02-23T06:48:57.185Z,8.4
2023-02-23T06:50:06.917Z,5.2
2023-02-23T06:51:14.606Z,7
2023-02-23T06:52:24.298Z,6.6
2023-02-23T06:53:34.009Z,6.7
2023-02-23T06:54:42.652Z,5.5
2023-02-23T06:55:51.382Z,7.3
2023-02-23T06:57:00.113Z,6.5
2023-02-23T06:58:09.815Z,7.3
2023-02-23T06:59:19.503Z,6.5
2023-02-23T07:00:27.193Z,5.2
2023-02-23T07:01:36.931Z,6.7
2023-02-23T07:02:45.565Z,8.3
2023-02-23T07:03:54.446Z,5.8
2023-02-23T07:05:04.031Z,6.5
2023-02-23T07:06:12.693Z,4.6
2023-02-23T07:07:22.371Z,5.1
2023-02-23T07:08:32.071Z,5.1
2023-02-23T07:09:40.786Z,5.3
2023-02-23T07:10:50.460Z,4.1
2023-02-23T07:11:58.182Z,5.1
2023-02-23T07:13:06.946Z,5.5
2023-02-23T07:14:25.213Z,5.5
2023-02-23T07:15:27.257Z,4.1
2023-02-23T07:16:36.962Z,4.4
2023-02-23T07:17:46.587Z,5.8
2023-02-23T07:18:55.314Z,7.5
2023-02-23T07:20:05.005Z,5.1
2023-02-23T07:21:13.677Z,8.3
2023-02-23T07:22:22.456Z,6
2023-02-23T07:23:30.046Z,6.2
2023-02-23T07:24:38.818Z,7
2023-02-23T07:25:49.006Z,6.1
2023-02-23T07:26:57.715Z,4.2
2023-02-23T07:28:07.456Z,4.4
2023-02-23T07:29:17.448Z,6
2023-02-23T07:30:26.044Z,6
2023-02-23T07:31:34.886Z,5.5
2023-02-23T07:32:43.541Z,7.7
2023-02-23T07:33:51.284Z,11.5
2023-02-23T07:35:01.091Z,4.1
2023-02-23T07:36:10.830Z,7.2
2023-02-23T07:37:19.535Z,5.6
2023-02-23T07:38:29.269Z,6.1
2023-02-23T07:39:37.948Z,7.8
2023-02-23T07:40:47.653Z,6.1
2023-02-23T07:41:56.367Z,5
2023-02-23T07:43:04.158Z,7.2
2023-02-23T07:44:13.861Z,11.4
2023-02-23T07:45:22.593Z,7.7
2023-02-23T07:46:31.237Z,6.5
2023-02-23T07:47:40.930Z,5.9
2023-02-23T07:48:50.606Z,8.3
2023-02-23T07:49:59.326Z,5.7
2023-02-23T07:51:09.944Z,6.1
2023-02-23T07:52:17.762Z,4.3
2023-02-23T07:53:27.457Z,5.9
2023-02-23T07:54:36.163Z,4.2
2023-02-23T07:55:43.849Z,5.6
2023-02-23T07:56:53.573Z,2.6
2023-02-23T07:58:02.279Z,4.9
2023-02-23T07:59:13.116Z,4.9
2023-02-23T08:00:22.906Z,6.9
2023-02-23T08:01:30.696Z,4
2023-02-23T08:02:40.414Z,4.4
2023-02-23T08:03:50.094Z,5.1
2023-02-23T08:04:58.805Z,6.6
2023-02-23T08:06:08.550Z,4.6
2023-02-23T08:07:17.253Z,5.7
2023-02-23T08:08:25.990Z,4.9
2023-02-23T08:09:35.766Z,3.5
2023-02-23T08:10:44.414Z,3.5
2023-02-23T08:11:55.120Z,4.7
2023-02-23T08:13:04.812Z,3.5
2023-02-23T08:14:13.571Z,6.6
2023-02-23T08:15:23.251Z,3.9
2023-02-23T08:16:31.962Z,4.4
2023-02-23T08:17:40.587Z,4.6
2023-02-23T08:18:50.343Z,5.9
2023-02-23T08:19:58.961Z,6
2023-02-23T08:21:08.633Z,3.6
2023-02-23T08:22:17.349Z,5
2023-02-23T08:23:26.027Z,7.8
2023-02-23T08:24:35.862Z,5.8
2023-02-23T08:25:45.542Z,4.5
2023-02-23T08:26:54.309Z,4.1
2023-02-23T08:28:04.703Z,5.1
2023-02-23T08:29:11.689Z,8
2023-02-23T08:30:21.439Z,4.6
2023-02-23T08:31:30.265Z,2.6
2023-02-23T08:32:39.915Z,4.5
2023-02-23T08:33:49.567Z,4.2
2023-02-23T08:34:58.243Z,4.2
2023-02-23T08:36:06.927Z,3.2
2023-02-23T08:37:16.679Z,3.1
2023-02-23T08:38:25.387Z,4.2
2023-02-23T08:39:35.102Z,4.4
2023-02-23T08:40:43.756Z,4.6
2023-02-23T08:41:53.435Z,3.5
2023-02-23T08:43:03.107Z,4.8
2023-02-23T08:44:11.772Z,5
2023-02-23T08:45:20.473Z,3.4
2023-02-23T08:46:30.192Z,7.9
2023-02-23T08:47:38.827Z,2.9
2023-02-23T08:48:47.506Z,5.6
2023-02-23T08:49:56.201Z,3.6
2023-02-23T08:51:05.855Z,6.7
2023-02-23T08:52:14.566Z,3.5
2023-02-23T08:53:22.308Z,4.8
2023-02-23T08:54:32.001Z,2.5
2023-02-23T08:55:41.666Z,4.4
2023-02-23T08:56:51.333Z,4.2
2023-02-23T08:58:00.057Z,3.7
2023-02-23T08:59:08.739Z,4.2
2023-02-23T09:00:18.442Z,4.4
2023-02-23T09:01:27.136Z,3.5
2023-02-23T09:02:35.808Z,3.7
2023-02-23T09:03:45.467Z,4.5
2023-02-23T09:04:54.180Z,4.2
2023-02-23T09:06:03.057Z,3.6
2023-02-23T09:07:12.733Z,3.4
2023-02-23T09:08:21.496Z,8.9
2023-02-23T09:09:31.347Z,2.9
2023-02-23T09:10:41.144Z,3.6
2023-02-23T09:11:49.885Z,3.6
2023-02-23T09:12:59.548Z,5
2023-02-23T09:14:08.223Z,3.7
2023-02-23T09:15:16.963Z,8.2
2023-02-23T09:16:25.614Z,2.6
2023-02-23T09:17:35.274Z,4.2
2023-02-23T09:18:44.936Z,5.8
2023-02-23T09:19:53.591Z,3.7
2023-02-23T09:21:03.278Z,4.8
2023-02-23T09:22:13.030Z,5
2023-02-23T09:23:21.781Z,6.5
2023-02-23T09:24:31.466Z,3.9
2023-02-23T09:25:40.201Z,3.9
2023-02-23T09:26:49.866Z,5.7
2023-02-23T09:27:59.554Z,5.7
2023-02-23T09:29:08.204Z,5.1
2023-02-23T09:30:16.922Z,3.3
2023-02-23T09:31:26.670Z,5.9
2023-02-23T09:32:35.413Z,4.6
2023-02-23T09:33:44.973Z,3.8
2023-02-23T09:34:54.647Z,6.1
2023-02-23T09:36:03.386Z,5.2
2023-02-23T09:37:13.069Z,5.5
2023-02-23T09:38:21.833Z,4.6
2023-02-23T09:39:37.923Z,8.5
2023-02-23T09:40:42.149Z,3.1
2023-02-23T09:41:50.811Z,4.3
2023-02-23T09:43:00.463Z,4.3
2023-02-23T09:44:10.196Z,3.7
2023-02-23T09:45:18.878Z,5.3
2023-02-23T09:46:28.629Z,3.3
2023-02-23T09:47:37.198Z,4.9
2023-02-23T09:48:45.885Z,3.2
2023-02-23T09:49:55.581Z,5
2023-02-23T09:51:04.256Z,3.5
2023-02-23T09:52:13.034Z,2.8
2023-02-23T09:53:21.654Z,4.5
2023-02-23T09:54:30.348Z,3.3
2023-02-23T09:55:40.022Z,2.4
2023-02-23T09:56:48.695Z,6.2
2023-02-23T09:57:57.344Z,4
2023-02-23T09:59:08.631Z,5.3
2023-02-23T10:00:16.694Z,3
2023-02-23T10:01:26.387Z,3.8
2023-02-23T10:02:35.058Z,3.8
2023-02-23T10:03:44.755Z,4.1
2023-02-23T10:04:56.882Z,5.1
2023-02-23T10:06:04.149Z,5.3
2023-02-23T10:07:12.817Z,4.4
2023-02-23T10:08:22.491Z,7
2023-02-23T10:09:31.143Z,3.3
2023-02-23T10:10:40.904Z,3.6
2023-02-23T10:11:50.578Z,3.9
2023-02-23T10:12:59.223Z,3.3
2023-02-23T10:14:08.926Z,3.6
2023-02-23T10:15:17.663Z,3.7
2023-02-23T10:16:24.328Z,3.8
2023-02-23T10:17:33.994Z,5
2023-02-23T10:18:46.762Z,2.6
2023-02-23T10:19:54.329Z,2.9
2023-02-23T10:21:03.050Z,3
2023-02-23T10:22:11.702Z,2.9
2023-02-23T10:23:20.469Z,4.7
2023-02-23T10:24:29.330Z,2.6
2023-02-23T10:25:39.017Z,4.2
2023-02-23T10:26:48.966Z,2.9
2023-02-23T10:27:57.597Z,3.1
2023-02-23T10:29:06.256Z,2.4
2023-02-23T10:30:14.961Z,2.2
2023-02-23T10:31:23.020Z,3
2023-02-23T10:32:32.402Z,2.4
2023-02-23T10:33:41.054Z,4.6
2023-02-23T10:34:48.709Z,2.8
2023-02-23T10:36:12.322Z,2.8
2023-02-23T10:37:09.162Z,2.1
2023-02-23T10:38:17.861Z,3.3
2023-02-23T10:39:26.641Z,2.9
2023-02-23T10:40:34.231Z,2
2023-02-23T10:41:43.942Z,2.3
2023-02-23T10:42:53.648Z,4.5
2023-02-23T10:44:15.580Z,2.4
2023-02-23T10:45:13.932Z,1.8
2023-02-23T10:46:21.775Z,1.8
2023-02-23T10:47:31.440Z,3.1
2023-02-23T10:48:40.184Z,2.2
2023-02-23T10:49:49.831Z,3.5
2023-02-23T10:50:58.524Z,4.1
2023-02-23T10:52:07.227Z,1.6
2023-02-23T10:53:16.915Z,3.7
2023-02-23T10:54:25.576Z,4
2023-02-23T10:55:34.233Z,3.2
2023-02-23T10:56:43.951Z,1.6
2023-02-23T10:57:52.588Z,2.3
2023-02-23T10:59:02.475Z,3.2
2023-02-23T11:00:12.036Z,1.3
2023-02-23T11:01:20.173Z,2.6
2023-02-23T11:02:29.695Z,3.4
2023-02-23T11:03:38.039Z,1.5
2023-02-23T11:04:46.841Z,2.8
2023-02-23T11:05:56.419Z,3.4
2023-02-23T11:07:06.114Z,1.3
2023-02-23T11:08:16.149Z,3.1
2023-02-23T11:09:37.382Z,2.5
2023-02-23T11:10:34.160Z,2.1
2023-02-23T11:11:44.044Z,2.3
2023-02-23T11:12:52.730Z,2.4
2023-02-23T11:14:02.425Z,2.5
2023-02-23T11:15:12.114Z,2.1
2023-02-23T11:16:20.835Z,2.6
2023-02-23T11:17:30.520Z,4.4
2023-02-23T11:18:39.190Z,2.6
2023-02-23T11:19:47.889Z,1.9
2023-02-23T11:20:57.607Z,2.3
2023-02-23T11:22:07.312Z,2.2
2023-02-23T11:23:15.971Z,1.7
2023-02-23T11:24:25.679Z,4.7
2023-02-23T11:25:35.327Z,2.9
2023-02-23T11:26:44.129Z,2.7
2023-02-23T11:27:53.893Z,2
2023-02-23T11:29:03.581Z,2.1
2023-02-23T11:30:13.240Z,2.6
2023-02-23T11:31:23.411Z,2.9
2023-02-23T11:32:31.742Z,2.2
2023-02-23T11:33:41.391Z,3.8
2023-02-23T11:34:51.257Z,4.7
2023-02-23T11:35:59.941Z,3.9
2023-02-23T11:37:10.081Z,3.2
2023-02-23T11:38:19.326Z,3
2023-02-23T11:39:29.149Z,4.4
2023-02-23T11:40:37.846Z,2.2
2023-02-23T11:41:45.501Z,2.3
2023-02-23T11:42:55.205Z,1.6
2023-02-23T11:44:05.978Z,2.5
2023-02-23T11:45:12.560Z,2.4
2023-02-23T11:46:22.944Z,2.7
2023-02-23T11:47:31.011Z,2
2023-02-23T11:48:40.653Z,1.1
2023-02-23T11:49:49.409Z,2.2
2023-02-23T11:50:57.105Z,1.1
2023-02-23T11:52:06.866Z,5
2023-02-23T11:53:16.548Z,1.8
2023-02-23T11:54:25.210Z,2.2
2023-02-23T11:55:32.849Z,4.1
2023-02-23T11:56:41.492Z,2.2
2023-02-23T11:57:51.180Z,2
2023-02-23T11:58:59.927Z,2.2
2023-02-23T12:00:08.597Z,2.1
2023-02-23T12:01:17.374Z,2.3
2023-02-23T12:02:25.995Z,2
2023-02-23T12:03:34.838Z,2
2023-02-23T12:04:51.495Z,5
2023-02-23T12:06:00.097Z,2.7
2023-02-23T12:07:07.726Z,1.7
2023-02-23T12:08:16.438Z,1
2023-02-23T12:09:25.041Z,1.2
2023-02-23T12:10:34.765Z,1.8
2023-02-23T12:11:44.378Z,1.5
2023-02-23T12:12:53.042Z,2.4
2023-02-23T12:14:02.710Z,2.9
2023-02-23T12:15:11.376Z,2.1
2023-02-23T12:16:21.381Z,1.2
2023-02-23T12:17:30.708Z,2.1
2023-02-23T12:18:40.402Z,1.6
2023-02-23T12:19:49.034Z,1.1
2023-02-23T12:20:58.712Z,1.9
2023-02-23T12:22:06.348Z,2.3
2023-02-23T12:23:15.031Z,1.6
2023-02-23T12:24:24.691Z,2
2023-02-23T12:25:33.358Z,2.2
2023-02-23T12:26:43.059Z,11.1
2023-02-23T12:27:52.790Z,2.4
2023-02-23T12:29:01.446Z,2
2023-02-23T12:30:10.090Z,2.3
2023-02-23T12:31:19.830Z,2.2
2023-02-23T12:32:29.505Z,0.5
2023-02-23T12:33:38.107Z,1.4
2023-02-23T12:34:45.773Z,1.2
2023-02-23T12:35:54.440Z,1.2
2023-02-23T12:37:04.086Z,2.2
2023-02-23T12:38:11.761Z,2.3
2023-02-23T12:39:20.418Z,1.5
2023-02-23T12:40:29.144Z,1
2023-02-23T12:41:38.845Z,2.6
2023-02-23T12:42:47.466Z,1.9
2023-02-23T12:43:57.186Z,1.7
2023-02-23T12:45:06.806Z,1.1
2023-02-23T12:46:16.562Z,1.4
2023-02-23T12:47:26.282Z,2.6
2023-02-23T12:48:35.067Z,2.6
2023-02-23T12:49:44.787Z,1.8
2023-02-23T12:50:54.588Z,1.6
2023-02-23T12:52:03.294Z,1.4
2023-02-23T12:53:13.094Z,1.8
2023-02-23T12:54:22.825Z,3.4
2023-02-23T12:55:30.595Z,2.7
2023-02-23T12:56:40.332Z,1.4
2023-02-23T12:57:49.080Z,5.2
2023-02-23T12:58:57.860Z,1
2023-02-23T13:00:06.605Z,1.7
2023-02-23T13:01:16.524Z,2.3
2023-02-23T13:02:26.148Z,1.7
2023-02-23T13:03:34.857Z,1.4
2023-02-23T13:04:43.619Z,2.6
2023-02-23T13:05:53.362Z,1.3
2023-02-23T13:07:04.381Z,2
2023-02-23T13:08:13.941Z,2.1
2023-02-23T13:09:22.642Z,3
2023-02-23T13:10:31.442Z,1.2
2023-02-23T13:11:40.171Z,1.5
2023-02-23T13:12:49.955Z,1.6
2023-02-23T13:13:59.679Z,1.2
2023-02-23T13:15:09.414Z,1
2023-02-23T13:16:18.270Z,1.9
2023-02-23T13:17:26.965Z,2.1
2023-02-23T13:18:35.761Z,2.4
2023-02-23T13:19:43.430Z,1.2
2023-02-23T13:20:53.141Z,1.3
2023-02-23T13:22:01.833Z,1.7
2023-02-23T13:23:09.592Z,1.4
2023-02-23T13:24:19.244Z,1.3
2023-02-23T13:25:27.940Z,0.6
2023-02-23T13:26:37.632Z,0.6
2023-02-23T13:27:47.271Z,1.4
2023-02-23T13:28:55.941Z,0.8
2023-02-23T13:30:05.632Z,1.2
2023-02-23T13:31:14.435Z,5.5
2023-02-23T13:32:23.099Z,1.2
2023-02-23T13:33:43.463Z,1.2
2023-02-23T13:34:42.338Z,1.4
2023-02-23T13:35:51.006Z,1.2
2023-02-23T13:36:59.666Z,2.1
2023-02-23T13:38:08.324Z,1.5
2023-02-23T13:39:19.392Z,2.6
2023-02-23T13:40:27.664Z,1.8
2023-02-23T13:41:35.312Z,3
2023-02-23T13:42:44.979Z,1.5
2023-02-23T13:43:53.651Z,1.3
2023-02-23T13:45:02.317Z,1.1
2023-02-23T13:46:11.021Z,1.7
2023-02-23T13:47:19.695Z,1.1
2023-02-23T13:48:29.303Z,1.9
2023-02-23T13:49:38.975Z,2.5
2023-02-23T13:50:47.667Z,3
2023-02-23T13:51:57.382Z,2.1
2023-02-23T13:53:06.052Z,2
2023-02-23T13:54:15.746Z,2.3
2023-02-23T13:55:25.422Z,1.4
2023-02-23T13:56:34.037Z,1.5
2023-02-23T13:57:43.690Z,1.1
2023-02-23T13:58:52.384Z,1.6
2023-02-23T14:00:01.117Z,2.5
2023-02-23T14:01:10.740Z,1.1
2023-02-23T14:02:20.452Z,2.5
2023-02-23T14:03:29.031Z,2.6
2023-02-23T14:04:38.655Z,3.1
2023-02-23T14:05:47.349Z,1.3
2023-02-23T14:06:57.033Z,2.2
2023-02-23T14:08:05.666Z,1.4
2023-02-23T14:09:13.329Z,0.9
2023-02-23T14:10:22.011Z,1.9
2023-02-23T14:11:30.660Z,1.6
2023-02-23T14:12:40.305Z,1.8
2023-02-23T14:13:48.933Z,2.8
2023-02-23T14:14:59.625Z,1.1
2023-02-23T14:16:09.340Z,1
2023-02-23T14:17:17.972Z,2.7
2023-02-23T14:18:26.639Z,1.9
2023-02-23T14:19:36.331Z,1.5
2023-02-23T14:20:46.037Z,2.6
2023-02-23T14:21:55.709Z,1.4
2023-02-23T14:23:05.387Z,2.2
2023-02-23T14:24:14.078Z,1.4
2023-02-23T14:25:23.788Z,0.8
2023-02-23T14:26:32.386Z,1.1
2023-02-23T14:27:42.229Z,1.5
2023-02-23T14:28:51.733Z,1.4
2023-02-23T14:30:01.415Z,1.8
2023-02-23T14:31:11.271Z,2.3
2023-02-23T14:32:20.819Z,2.5
2023-02-23T14:33:28.397Z,1.5
2023-02-23T14:34:38.101Z,2.5
2023-02-23T14:35:46.758Z,1.8
2023-02-23T14:36:56.475Z,1.3
2023-02-23T14:38:06.112Z,1.4
2023-02-23T14:39:14.773Z,1.7
2023-02-23T14:40:24.428Z,2.1
2023-02-23T14:41:34.177Z,1.1
2023-02-23T14:42:44.002Z,2.1
2023-02-23T14:43:53.681Z,1.4
2023-02-23T14:45:01.321Z,1.8
2023-02-23T14:46:11.022Z,0.6
2023-02-23T14:47:19.628Z,1.1
2023-02-23T14:48:28.284Z,2.3
2023-02-23T14:49:37.980Z,0.6
2023-02-23T14:50:47.624Z,0.8
2023-02-23T14:51:56.292Z,0.5
2023-02-23T14:53:04.932Z,0.8
2023-02-23T14:54:14.589Z,1
2023-02-23T14:55:24.280Z,0.7
2023-02-23T14:56:43.402Z,1
2023-02-23T14:57:42.548Z,1.5
2023-02-23T14:58:52.192Z,1.5
2023-02-23T15:00:00.957Z,0.7
2023-02-23T15:01:09.535Z,1.1
2023-02-23T15:02:18.225Z,1
2023-02-23T15:03:25.864Z,0.4
2023-02-23T15:04:35.591Z,1.6
2023-02-23T15:05:44.209Z,0.9
2023-02-23T15:06:53.868Z,0.6
2023-02-23T15:08:03.521Z,0.9
2023-02-23T15:09:13.177Z,1
2023-02-23T15:10:21.860Z,1.2
2023-02-23T15:11:30.525Z,1.5
2023-02-23T15:12:38.185Z,1
2023-02-23T15:13:47.857Z,1
2023-02-23T15:14:56.517Z,1.6
2023-02-23T15:16:04.406Z,2.2
2023-02-23T15:17:13.842Z,0.6
2023-02-23T15:18:22.500Z,1.4
2023-02-23T15:19:31.162Z,1.1
2023-02-23T15:21:40.145Z,0.7
2023-02-23T15:22:49.818Z,0.8
2023-02-23T15:23:58.486Z,0.6
2023-02-23T15:25:07.157Z,0.7
2023-02-23T15:26:23.942Z,1.7
2023-02-23T15:27:25.449Z,1.1
2023-02-23T15:28:35.115Z,1
2023-02-23T15:29:43.774Z,1
2023-02-23T15:30:52.485Z,3.2
2023-02-23T15:32:02.302Z,0.9
2023-02-23T15:33:11.815Z,1.6
2023-02-23T15:34:20.541Z,1.3
2023-02-23T15:35:30.689Z,1
2023-02-23T15:36:39.399Z,1.3
2023-02-23T15:37:52.742Z,1.5
2023-02-23T15:38:59.716Z,1.1
2023-02-23T15:40:09.616Z,2.2
2023-02-23T15:41:18.343Z,2.1
2023-02-23T15:42:26.722Z,1.6
2023-02-23T15:43:35.386Z,1.5
2023-02-23T15:44:45.437Z,2
2023-02-23T15:45:54.765Z,1.1
2023-02-23T15:47:03.647Z,0.7
2023-02-23T15:48:13.148Z,1.2
2023-02-23T15:49:20.865Z,1
2023-02-23T15:50:36.387Z,1.9
2023-02-23T15:51:41.279Z,1.3
2023-02-23T15:52:49.917Z,1
2023-02-23T15:53:59.608Z,1.9
2023-02-23T15:55:09.347Z,1
2023-02-23T15:56:18.041Z,5
2023-02-23T15:57:27.737Z,0.9
2023-02-23T15:58:41.718Z,1